首页
METAR-TAF:

METAR-TAF

机场 :

杰克逊维尔, 佛罗里达州, 美国

纬度: 30-14-03N, 经度: 081-40-29W, 海拔: 6米

当前天气观测

该预报发布于41分钟前的05:53 UTC
风速7节,风向南转西南
温度 28°C
湿度 58%
气压 1018 hPa
能見度: 16.1公里
天空无云

METAR: KNIP 270553Z AUTO 21007KT 10SM CLR 28/19 A3007 RMK AO2 SLP179 T02780194 10328 20278 58003

时间: 02:34 (06:34 UTC)

预报

预报有效从26日的 23点(UTC)到 27日的 23点(UTC)
风速10节,风向南转南东
能见度10公里或以上
少量云层高于28000英尺
成为
从 27日的 07点(UTC)到 29日的 09点(UTC)
风速12节,风向南转西南
能見度: 2804

TAF: KNIP 2623/2723 15010KT 9999 FEW280 QNH2993INS BECMG 2707/2909 20012KT QNH2996INS AUTOMATED SENSOR METWATCH 2704 TIL 2804 T27/2709Z T38/2722Z FN00205

超过4000个机场的气象观测和天气预报(METAR&TAF报告)。

可查询的气象台以黄色和红色小点在地图上表示。

将鼠标移到小点上方,可查看气象台名称。

然后点击查看天气观测和预报。

如需切换地图:点击带黑十字的绿色按钮放大地图;点击带横线的绿色按钮缩小地图;或者点击绿色箭头查看邻近地区的地图。


METAR-TAF: